sensor_id;sensor_type;location;lat;lon;timestamp;P1;durP1;ratioP1;P2;durP2;ratioP2
21430;SDS011;10876;49.038;10.608;2023-04-28T00:38:17;9.15;;;4.93;;
21430;SDS011;10876;49.038;10.608;2023-04-28T00:40:43;12.23;;;6.10;;
21430;SDS011;10876;49.038;10.608;2023-04-28T00:43:11;11.70;;;5.63;;
21430;SDS011;10876;49.038;10.608;2023-04-28T00:45:37;9.77;;;5.30;;
21430;SDS011;10876;49.038;10.608;2023-04-28T00:48:04;9.07;;;5.32;;
21430;SDS011;10876;49.038;10.608;2023-04-28T00:50:31;10.85;;;5.20;;
21430;SDS011;10876;49.038;10.608;2023-04-28T00:52:59;6.43;;;4.78;;
21430;SDS011;10876;49.038;10.608;2023-04-28T00:55:27;8.77;;;4.97;;
21430;SDS011;10876;49.038;10.608;2023-04-28T01:31:09;7.10;;;4.90;;
21430;SDS011;10876;49.038;10.608;2023-04-28T01:33:36;8.10;;;5.15;;
21430;SDS011;10876;49.038;10.608;2023-04-28T01:36:03;11.25;;;5.95;;
21430;SDS011;10876;49.038;10.608;2023-04-28T01:38:30;10.82;;;5.93;;
21430;SDS011;10876;49.038;10.608;2023-04-28T01:40:57;9.65;;;5.82;;
21430;SDS011;10876;49.038;10.608;2023-04-28T01:43:24;12.57;;;7.22;;
21430;SDS011;10876;49.038;10.608;2023-04-28T01:45:51;11.20;;;6.35;;
21430;SDS011;10876;49.038;10.608;2023-04-28T01:48:20;12.27;;;6.90;;
21430;SDS011;10876;49.038;10.608;2023-04-28T01:50:47;17.13;;;7.35;;
21430;SDS011;10876;49.038;10.608;2023-04-28T01:53:13;10.45;;;6.90;;
21430;SDS011;10876;49.038;10.608;2023-04-28T01:55:44;12.05;;;7.25;;
21430;SDS011;10876;49.038;10.608;2023-04-28T01:58:11;12.52;;;7.43;;
21430;SDS011;10876;49.038;10.608;2023-04-28T02:00:38;10.25;;;7.25;;
21430;SDS011;10876;49.038;10.608;2023-04-28T02:03:05;12.70;;;7.88;;
21430;SDS011;10876;49.038;10.608;2023-04-28T02:05:34;11.90;;;8.00;;
21430;SDS011;10876;49.038;10.608;2023-04-28T02:08:01;14.45;;;7.82;;
21430;SDS011;10876;49.038;10.608;2023-04-28T02:10:28;13.15;;;7.50;;
21430;SDS011;10876;49.038;10.608;2023-04-28T02:12:55;11.95;;;7.30;;
21430;SDS011;10876;49.038;10.608;2023-04-28T02:15:21;10.00;;;7.30;;
21430;SDS011;10876;49.038;10.608;2023-04-28T02:17:49;11.15;;;6.93;;
21430;SDS011;10876;49.038;10.608;2023-04-28T02:20:16;12.73;;;6.80;;
21430;SDS011;10876;49.038;10.608;2023-04-28T02:22:44;12.15;;;6.55;;
21430;SDS011;10876;49.038;10.608;2023-04-28T02:25:11;12.73;;;7.28;;
21430;SDS011;10876;49.038;10.608;2023-04-28T02:27:38;14.20;;;7.32;;
21430;SDS011;10876;49.038;10.608;2023-04-28T02:30:06;16.27;;;7.50;;
21430;SDS011;10876;49.038;10.608;2023-04-28T02:32:33;14.57;;;7.45;;
21430;SDS011;10876;49.038;10.608;2023-04-28T02:35:00;13.07;;;7.47;;
21430;SDS011;10876;49.038;10.608;2023-04-28T02:37:27;10.98;;;6.45;;
21430;SDS011;10876;49.038;10.608;2023-04-28T02:39:55;8.70;;;5.60;;
21430;SDS011;10876;49.038;10.608;2023-04-28T02:42:22;10.73;;;5.93;;
21430;SDS011;10876;49.038;10.608;2023-04-28T02:44:49;9.15;;;6.13;;
21430;SDS011;10876;49.038;10.608;2023-04-28T02:47:16;11.60;;;7.07;;
21430;SDS011;10876;49.038;10.608;2023-04-28T02:49:43;10.43;;;6.25;;
21430;SDS011;10876;49.038;10.608;2023-04-28T02:52:10;13.88;;;7.07;;
21430;SDS011;10876;49.038;10.608;2023-04-28T02:54:37;11.43;;;6.60;;
21430;SDS011;10876;49.038;10.608;2023-04-28T02:57:05;11.77;;;6.55;;
21430;SDS011;10876;49.038;10.608;2023-04-28T02:59:32;11.43;;;6.78;;
21430;SDS011;10876;49.038;10.608;2023-04-28T03:01:59;12.23;;;6.57;;
21430;SDS011;10876;49.038;10.608;2023-04-28T03:04:26;11.07;;;6.88;;
21430;SDS011;10876;49.038;10.608;2023-04-28T03:06:53;10.60;;;6.43;;
21430;SDS011;10876;49.038;10.608;2023-04-28T03:09:20;10.20;;;6.22;;
21430;SDS011;10876;49.038;10.608;2023-04-28T03:11:47;11.30;;;6.97;;
21430;SDS011;10876;49.038;10.608;2023-04-28T03:14:15;10.85;;;5.93;;
21430;SDS011;10876;49.038;10.608;2023-04-28T03:16:42;13.85;;;6.47;;
21430;SDS011;10876;49.038;10.608;2023-04-28T03:19:09;9.25;;;5.88;;
21430;SDS011;10876;49.038;10.608;2023-04-28T03:21:36;10.57;;;5.78;;
21430;SDS011;10876;49.038;10.608;2023-04-28T03:24:04;9.52;;;5.93;;
21430;SDS011;10876;49.038;10.608;2023-04-28T03:26:31;7.97;;;5.22;;
21430;SDS011;10876;49.038;10.608;2023-04-28T03:28:58;9.15;;;5.57;;
21430;SDS011;10876;49.038;10.608;2023-04-28T03:31:26;9.77;;;5.95;;
21430;SDS011;10876;49.038;10.608;2023-04-28T03:34:03;7.93;;;5.75;;
21430;SDS011;10876;49.038;10.608;2023-04-28T03:36:30;10.77;;;5.32;;
21430;SDS011;10876;49.038;10.608;2023-04-28T03:38:57;9.63;;;5.75;;
21430;SDS011;10876;49.038;10.608;2023-04-28T03:41:24;9.18;;;5.55;;
21430;SDS011;10876;49.038;10.608;2023-04-28T03:43:51;8.55;;;5.30;;
21430;SDS011;10876;49.038;10.608;2023-04-28T03:46:20;8.23;;;5.63;;
21430;SDS011;10876;49.038;10.608;2023-04-28T03:48:49;8.18;;;5.10;;
21430;SDS011;10876;49.038;10.608;2023-04-28T03:51:17;10.25;;;5.30;;
21430;SDS011;10876;49.038;10.608;2023-04-28T03:53:44;8.68;;;5.50;;
21430;SDS011;10876;49.038;10.608;2023-04-28T04:02:55;7.50;;;5.00;;
21430;SDS011;10876;49.038;10.608;2023-04-28T04:05:23;9.82;;;5.75;;
21430;SDS011;10876;49.038;10.608;2023-04-28T04:07:50;8.63;;;5.38;;
21430;SDS011;10876;49.038;10.608;2023-04-28T04:10:17;9.32;;;4.55;;
21430;SDS011;10876;49.038;10.608;2023-04-28T04:12:44;9.20;;;5.43;;
21430;SDS011;10876;49.038;10.608;2023-04-28T04:15:11;9.73;;;5.38;;
21430;SDS011;10876;49.038;10.608;2023-04-28T04:17:38;10.57;;;5.75;;
21430;SDS011;10876;49.038;10.608;2023-04-28T04:20:06;9.32;;;5.70;;
21430;SDS011;10876;49.038;10.608;2023-04-28T04:22:35;7.97;;;5.53;;
21430;SDS011;10876;49.038;10.608;2023-04-28T04:25:02;8.73;;;6.03;;
21430;SDS011;10876;49.038;10.608;2023-04-28T04:27:29;10.77;;;5.50;;
21430;SDS011;10876;49.038;10.608;2023-04-28T04:29:56;9.70;;;6.10;;
21430;SDS011;10876;49.038;10.608;2023-04-28T04:32:23;8.57;;;5.90;;
21430;SDS011;10876;49.038;10.608;2023-04-28T04:34:50;9.35;;;6.00;;
21430;SDS011;10876;49.038;10.608;2023-04-28T04:37:17;13.38;;;7.00;;
21430;SDS011;10876;49.038;10.608;2023-04-28T04:39:45;10.35;;;6.15;;
21430;SDS011;10876;49.038;10.608;2023-04-28T04:42:12;11.15;;;6.50;;
21430;SDS011;10876;49.038;10.608;2023-04-28T04:44:39;11.68;;;6.70;;
21430;SDS011;10876;49.038;10.608;2023-04-28T04:47:06;11.02;;;6.38;;
21430;SDS011;10876;49.038;10.608;2023-04-28T04:49:33;12.15;;;6.10;;
21430;SDS011;10876;49.038;10.608;2023-04-28T04:52:00;10.93;;;6.75;;
21430;SDS011;10876;49.038;10.608;2023-04-28T04:54:27;9.55;;;6.10;;
21430;SDS011;10876;49.038;10.608;2023-04-28T04:56:55;10.93;;;6.63;;
21430;SDS011;10876;49.038;10.608;2023-04-28T04:59:22;10.10;;;6.65;;
21430;SDS011;10876;49.038;10.608;2023-04-28T05:01:50;9.30;;;6.40;;
21430;SDS011;10876;49.038;10.608;2023-04-28T05:04:16;9.70;;;6.38;;
21430;SDS011;10876;49.038;10.608;2023-04-28T05:06:43;13.73;;;6.40;;
21430;SDS011;10876;49.038;10.608;2023-04-28T05:09:10;9.23;;;6.40;;
21430;SDS011;10876;49.038;10.608;2023-04-28T05:11:37;9.75;;;6.18;;
21430;SDS011;10876;49.038;10.608;2023-04-28T05:14:06;10.43;;;6.00;;
21430;SDS011;10876;49.038;10.608;2023-04-28T05:16:33;8.55;;;6.13;;
21430;SDS011;10876;49.038;10.608;2023-04-28T05:19:00;8.10;;;6.22;;
21430;SDS011;10876;49.038;10.608;2023-04-28T05:21:27;12.15;;;6.43;;
21430;SDS011;10876;49.038;10.608;2023-04-28T05:23:54;10.85;;;6.50;;
21430;SDS011;10876;49.038;10.608;2023-04-28T05:26:21;10.20;;;6.32;;
21430;SDS011;10876;49.038;10.608;2023-04-28T05:28:48;8.73;;;5.82;;
21430;SDS011;10876;49.038;10.608;2023-04-28T05:31:17;10.50;;;6.43;;
21430;SDS011;10876;49.038;10.608;2023-04-28T05:33:43;11.32;;;6.47;;
21430;SDS011;10876;49.038;10.608;2023-04-28T05:36:10;10.38;;;5.90;;
21430;SDS011;10876;49.038;10.608;2023-04-28T05:38:41;10.38;;;6.28;;
21430;SDS011;10876;49.038;10.608;2023-04-28T05:41:08;9.70;;;5.90;;
21430;SDS011;10876;49.038;10.608;2023-04-28T05:43:34;9.70;;;6.13;;
21430;SDS011;10876;49.038;10.608;2023-04-28T05:46:01;10.98;;;6.38;;
21430;SDS011;10876;49.038;10.608;2023-04-28T05:48:30;10.07;;;6.57;;
21430;SDS011;10876;49.038;10.608;2023-04-28T05:50:57;12.73;;;6.63;;
21430;SDS011;10876;49.038;10.608;2023-04-28T05:53:24;11.15;;;6.05;;
21430;SDS011;10876;49.038;10.608;2023-04-28T05:55:51;10.35;;;6.15;;
21430;SDS011;10876;49.038;10.608;2023-04-28T05:58:18;10.98;;;6.35;;
21430;SDS011;10876;49.038;10.608;2023-04-28T06:00:45;9.88;;;6.47;;
21430;SDS011;10876;49.038;10.608;2023-04-28T06:03:13;7.78;;;5.93;;
21430;SDS011;10876;49.038;10.608;2023-04-28T06:05:44;9.73;;;5.82;;
21430;SDS011;10876;49.038;10.608;2023-04-28T06:08:11;9.23;;;6.32;;
21430;SDS011;10876;49.038;10.608;2023-04-28T06:10:38;8.52;;;5.72;;
21430;SDS011;10876;49.038;10.608;2023-04-28T06:13:05;9.25;;;5.90;;
21430;SDS011;10876;49.038;10.608;2023-04-28T06:15:33;9.68;;;5.72;;
21430;SDS011;10876;49.038;10.608;2023-04-28T06:18:00;7.70;;;5.45;;
21430;SDS011;10876;49.038;10.608;2023-04-28T06:20:27;6.97;;;4.70;;
21430;SDS011;10876;49.038;10.608;2023-04-28T06:22:55;8.27;;;5.65;;
21430;SDS011;10876;49.038;10.608;2023-04-28T06:25:22;11.02;;;6.30;;
21430;SDS011;10876;49.038;10.608;2023-04-28T06:27:49;10.52;;;6.03;;
21430;SDS011;10876;49.038;10.608;2023-04-28T06:30:16;10.10;;;6.07;;
21430;SDS011;10876;49.038;10.608;2023-04-28T06:32:44;9.63;;;6.47;;
21430;SDS011;10876;49.038;10.608;2023-04-28T06:35:11;11.13;;;6.30;;
21430;SDS011;10876;49.038;10.608;2023-04-28T06:37:38;10.50;;;6.35;;
21430;SDS011;10876;49.038;10.608;2023-04-28T06:40:08;11.70;;;7.05;;
21430;SDS011;10876;49.038;10.608;2023-04-28T06:42:35;11.50;;;7.32;;
21430;SDS011;10876;49.038;10.608;2023-04-28T06:45:02;10.32;;;6.78;;
21430;SDS011;10876;49.038;10.608;2023-04-28T06:47:30;12.35;;;6.40;;
21430;SDS011;10876;49.038;10.608;2023-04-28T06:49:57;9.48;;;5.68;;
21430;SDS011;10876;49.038;10.608;2023-04-28T06:52:26;9.07;;;6.45;;
21430;SDS011;10876;49.038;10.608;2023-04-28T06:54:53;10.65;;;5.95;;
21430;SDS011;10876;49.038;10.608;2023-04-28T06:57:22;10.05;;;6.70;;
21430;SDS011;10876;49.038;10.608;2023-04-28T06:59:49;10.68;;;6.82;;
21430;SDS011;10876;49.038;10.608;2023-04-28T07:02:16;10.75;;;6.72;;
21430;SDS011;10876;49.038;10.608;2023-04-28T07:04:42;10.40;;;6.88;;
21430;SDS011;10876;49.038;10.608;2023-04-28T07:07:10;11.38;;;6.15;;
21430;SDS011;10876;49.038;10.608;2023-04-28T07:09:37;10.30;;;6.93;;
21430;SDS011;10876;49.038;10.608;2023-04-28T07:12:04;12.05;;;6.90;;
21430;SDS011;10876;49.038;10.608;2023-04-28T07:14:33;12.18;;;7.43;;
21430;SDS011;10876;49.038;10.608;2023-04-28T07:17:00;16.58;;;7.28;;
21430;SDS011;10876;49.038;10.608;2023-04-28T07:19:27;11.65;;;6.80;;
21430;SDS011;10876;49.038;10.608;2023-04-28T07:21:54;11.95;;;6.65;;
21430;SDS011;10876;49.038;10.608;2023-04-28T07:24:20;12.63;;;6.70;;
21430;SDS011;10876;49.038;10.608;2023-04-28T07:26:49;10.70;;;7.15;;
21430;SDS011;10876;49.038;10.608;2023-04-28T07:29:16;15.05;;;6.95;;
21430;SDS011;10876;49.038;10.608;2023-04-28T07:31:44;9.63;;;6.72;;
21430;SDS011;10876;49.038;10.608;2023-04-28T07:34:11;10.15;;;6.68;;
21430;SDS011;10876;49.038;10.608;2023-04-28T07:36:38;13.07;;;7.38;;
21430;SDS011;10876;49.038;10.608;2023-04-28T07:39:05;13.60;;;7.55;;
21430;SDS011;10876;49.038;10.608;2023-04-28T07:41:34;9.55;;;6.03;;
21430;SDS011;10876;49.038;10.608;2023-04-28T07:44:02;11.73;;;7.32;;
21430;SDS011;10876;49.038;10.608;2023-04-28T07:46:30;10.73;;;6.65;;
21430;SDS011;10876;49.038;10.608;2023-04-28T07:48:59;11.00;;;6.07;;
21430;SDS011;10876;49.038;10.608;2023-04-28T07:51:27;9.35;;;5.95;;
21430;SDS011;10876;49.038;10.608;2023-04-28T07:53:54;9.80;;;6.55;;
21430;SDS011;10876;49.038;10.608;2023-04-28T07:56:21;14.27;;;7.55;;
21430;SDS011;10876;49.038;10.608;2023-04-28T07:58:48;12.90;;;7.75;;
21430;SDS011;10876;49.038;10.608;2023-04-28T08:01:16;12.73;;;7.00;;
21430;SDS011;10876;49.038;10.608;2023-04-28T08:03:43;10.52;;;6.28;;
21430;SDS011;10876;49.038;10.608;2023-04-28T08:06:11;12.93;;;7.57;;
21430;SDS011;10876;49.038;10.608;2023-04-28T08:08:39;7.97;;;5.50;;
21430;SDS011;10876;49.038;10.608;2023-04-28T08:11:06;11.95;;;7.05;;
21430;SDS011;10876;49.038;10.608;2023-04-28T08:13:33;11.98;;;6.78;;
21430;SDS011;10876;49.038;10.608;2023-04-28T08:16:00;12.23;;;7.28;;
21430;SDS011;10876;49.038;10.608;2023-04-28T08:18:27;13.27;;;8.10;;
21430;SDS011;10876;49.038;10.608;2023-04-28T08:20:54;13.85;;;7.22;;
21430;SDS011;10876;49.038;10.608;2023-04-28T08:23:23;7.88;;;5.72;;
21430;SDS011;10876;49.038;10.608;2023-04-28T08:25:52;12.05;;;7.60;;
21430;SDS011;10876;49.038;10.608;2023-04-28T08:28:19;11.90;;;7.15;;
21430;SDS011;10876;49.038;10.608;2023-04-28T08:30:46;10.02;;;6.38;;
21430;SDS011;10876;49.038;10.608;2023-04-28T08:33:13;12.63;;;7.60;;
21430;SDS011;10876;49.038;10.608;2023-04-28T08:35:40;8.50;;;5.40;;
21430;SDS011;10876;49.038;10.608;2023-04-28T08:38:08;11.45;;;7.57;;
21430;SDS011;10876;49.038;10.608;2023-04-28T08:40:39;12.68;;;7.07;;
21430;SDS011;10876;49.038;10.608;2023-04-28T08:43:07;14.75;;;7.65;;
21430;SDS011;10876;49.038;10.608;2023-04-28T08:45:37;15.13;;;8.65;;
21430;SDS011;10876;49.038;10.608;2023-04-28T08:48:06;12.13;;;8.02;;
21430;SDS011;10876;49.038;10.608;2023-04-28T08:50:42;13.82;;;7.95;;
21430;SDS011;10876;49.038;10.608;2023-04-28T08:53:15;15.60;;;8.38;;
21430;SDS011;10876;49.038;10.608;2023-04-28T08:55:49;12.02;;;7.93;;
21430;SDS011;10876;49.038;10.608;2023-04-28T08:58:18;12.43;;;7.97;;
21430;SDS011;10876;49.038;10.608;2023-04-28T09:00:45;12.20;;;7.20;;
21430;SDS011;10876;49.038;10.608;2023-04-28T09:03:12;11.65;;;7.07;;
21430;SDS011;10876;49.038;10.608;2023-04-28T09:05:39;11.00;;;6.85;;
21430;SDS011;10876;49.038;10.608;2023-04-28T09:08:06;9.93;;;6.90;;
21430;SDS011;10876;49.038;10.608;2023-04-28T09:10:33;9.23;;;6.57;;
21430;SDS011;10876;49.038;10.608;2023-04-28T09:13:02;9.95;;;6.97;;
21430;SDS011;10876;49.038;10.608;2023-04-28T09:15:30;10.55;;;6.82;;
21430;SDS011;10876;49.038;10.608;2023-04-28T09:17:58;10.25;;;7.45;;
21430;SDS011;10876;49.038;10.608;2023-04-28T09:20:27;11.50;;;6.75;;
21430;SDS011;10876;49.038;10.608;2023-04-28T09:22:55;8.88;;;6.45;;
21430;SDS011;10876;49.038;10.608;2023-04-28T09:25:37;10.98;;;6.88;;
21430;SDS011;10876;49.038;10.608;2023-04-28T09:28:11;10.93;;;6.30;;
21430;SDS011;10876;49.038;10.608;2023-04-28T09:30:45;9.88;;;6.88;;
21430;SDS011;10876;49.038;10.608;2023-04-28T09:33:12;10.75;;;6.72;;
21430;SDS011;10876;49.038;10.608;2023-04-28T09:35:40;9.25;;;6.68;;
21430;SDS011;10876;49.038;10.608;2023-04-28T09:38:09;11.95;;;7.15;;
21430;SDS011;10876;49.038;10.608;2023-04-28T09:40:53;9.70;;;6.50;;
21430;SDS011;10876;49.038;10.608;2023-04-28T09:43:24;10.07;;;5.68;;
21430;SDS011;10876;49.038;10.608;2023-04-28T09:45:53;8.27;;;5.95;;
21430;SDS011;10876;49.038;10.608;2023-04-28T09:48:26;8.10;;;5.18;;
21430;SDS011;10876;49.038;10.608;2023-04-28T09:50:58;6.95;;;5.45;;
21430;SDS011;10876;49.038;10.608;2023-04-28T09:53:26;7.65;;;5.82;;
21430;SDS011;10876;49.038;10.608;2023-04-28T09:55:54;9.00;;;6.00;;
21430;SDS011;10876;49.038;10.608;2023-04-28T09:58:25;6.78;;;5.53;;
21430;SDS011;10876;49.038;10.608;2023-04-28T10:00:54;7.18;;;4.78;;
21430;SDS011;10876;49.038;10.608;2023-04-28T10:03:23;7.80;;;4.97;;
21430;SDS011;10876;49.038;10.608;2023-04-28T10:05:51;7.70;;;5.50;;
21430;SDS011;10876;49.038;10.608;2023-04-28T10:08:23;6.03;;;4.72;;
21430;SDS011;10876;49.038;10.608;2023-04-28T10:10:51;7.85;;;5.47;;
21430;SDS011;10876;49.038;10.608;2023-04-28T10:13:18;7.60;;;5.40;;
21430;SDS011;10876;49.038;10.608;2023-04-28T10:15:47;6.05;;;4.78;;
21430;SDS011;10876;49.038;10.608;2023-04-28T10:18:15;6.80;;;5.00;;
21430;SDS011;10876;49.038;10.608;2023-04-28T10:20:43;6.22;;;4.35;;
21430;SDS011;10876;49.038;10.608;2023-04-28T10:23:28;6.13;;;4.28;;
21430;SDS011;10876;49.038;10.608;2023-04-28T10:26:07;5.25;;;3.78;;
21430;SDS011;10876;49.038;10.608;2023-04-28T10:28:43;5.82;;;4.30;;
21430;SDS011;10876;49.038;10.608;2023-04-28T10:31:13;4.40;;;3.78;;
21430;SDS011;10876;49.038;10.608;2023-04-28T10:33:41;5.15;;;3.85;;
21430;SDS011;10876;49.038;10.608;2023-04-28T10:36:09;5.07;;;3.80;;
21430;SDS011;10876;49.038;10.608;2023-04-28T10:41:37;6.20;;;4.60;;
21430;SDS011;10876;49.038;10.608;2023-04-28T10:47:05;5.07;;;3.58;;
21430;SDS011;10876;49.038;10.608;2023-04-28T10:52:46;7.25;;;4.47;;
21430;SDS011;10876;49.038;10.608;2023-04-28T10:55:27;4.53;;;3.90;;
21430;SDS011;10876;49.038;10.608;2023-04-28T11:03:53;4.22;;;3.10;;
21430;SDS011;10876;49.038;10.608;2023-04-28T11:06:27;3.65;;;2.67;;
21430;SDS011;10876;49.038;10.608;2023-04-28T11:08:57;3.35;;;2.70;;
21430;SDS011;10876;49.038;10.608;2023-04-28T11:11:27;3.72;;;3.33;;
21430;SDS011;10876;49.038;10.608;2023-04-28T11:13:55;3.58;;;2.95;;
21430;SDS011;10876;49.038;10.608;2023-04-28T11:16:58;4.13;;;3.38;;
21430;SDS011;10876;49.038;10.608;2023-04-28T11:19:29;4.00;;;3.60;;
21430;SDS011;10876;49.038;10.608;2023-04-28T11:21:58;4.88;;;3.67;;
21430;SDS011;10876;49.038;10.608;2023-04-28T11:24:26;3.92;;;3.53;;
21430;SDS011;10876;49.038;10.608;2023-04-28T11:26:54;3.35;;;3.05;;
21430;SDS011;10876;49.038;10.608;2023-04-28T11:29:29;6.68;;;3.08;;
21430;SDS011;10876;49.038;10.608;2023-04-28T11:31:58;15.68;;;8.63;;
21430;SDS011;10876;49.038;10.608;2023-04-28T11:34:25;6.82;;;4.20;;
21430;SDS011;10876;49.038;10.608;2023-04-28T11:36:53;5.25;;;3.38;;
21430;SDS011;10876;49.038;10.608;2023-04-28T11:39:25;4.97;;;2.72;;
21430;SDS011;10876;49.038;10.608;2023-04-28T11:41:56;3.47;;;3.17;;
21430;SDS011;10876;49.038;10.608;2023-04-28T11:44:24;2.75;;;2.42;;
21430;SDS011;10876;49.038;10.608;2023-04-28T11:46:53;2.95;;;2.15;;
21430;SDS011;10876;49.038;10.608;2023-04-28T11:49:21;2.40;;;2.20;;
21430;SDS011;10876;49.038;10.608;2023-04-28T11:51:51;2.97;;;2.47;;
21430;SDS011;10876;49.038;10.608;2023-04-28T11:54:20;2.35;;;1.90;;
21430;SDS011;10876;49.038;10.608;2023-04-28T11:56:47;2.70;;;2.30;;
21430;SDS011;10876;49.038;10.608;2023-04-28T11:59:15;3.58;;;2.20;;
21430;SDS011;10876;49.038;10.608;2023-04-28T12:01:47;2.13;;;1.92;;
21430;SDS011;10876;49.038;10.608;2023-04-28T12:04:25;2.30;;;2.10;;
21430;SDS011;10876;49.038;10.608;2023-04-28T12:07:02;2.38;;;2.17;;
21430;SDS011;10876;49.038;10.608;2023-04-28T12:09:31;2.90;;;2.60;;
21430;SDS011;10876;49.038;10.608;2023-04-28T12:11:59;3.00;;;2.42;;
21430;SDS011;10876;49.038;10.608;2023-04-28T12:14:29;3.50;;;2.65;;
21430;SDS011;10876;49.038;10.608;2023-04-28T12:17:21;3.13;;;2.60;;
21430;SDS011;10876;49.038;10.608;2023-04-28T12:19:49;4.53;;;2.78;;
21430;SDS011;10876;49.038;10.608;2023-04-28T12:22:18;3.67;;;2.95;;
21430;SDS011;10876;49.038;10.608;2023-04-28T12:24:45;3.20;;;2.78;;
21430;SDS011;10876;49.038;10.608;2023-04-28T12:27:33;4.35;;;2.85;;
21430;SDS011;10876;49.038;10.608;2023-04-28T12:30:03;3.22;;;2.65;;
21430;SDS011;10876;49.038;10.608;2023-04-28T12:32:49;3.60;;;3.00;;
21430;SDS011;10876;49.038;10.608;2023-04-28T12:35:20;9.70;;;5.97;;
21430;SDS011;10876;49.038;10.608;2023-04-28T12:37:50;6.20;;;3.50;;
21430;SDS011;10876;49.038;10.608;2023-04-28T12:40:17;2.92;;;2.42;;
21430;SDS011;10876;49.038;10.608;2023-04-28T12:42:45;5.15;;;3.10;;
21430;SDS011;10876;49.038;10.608;2023-04-28T12:45:12;4.30;;;2.65;;
21430;SDS011;10876;49.038;10.608;2023-04-28T12:47:40;2.88;;;2.25;;
21430;SDS011;10876;49.038;10.608;2023-04-28T12:50:07;3.70;;;2.45;;
21430;SDS011;10876;49.038;10.608;2023-04-28T12:52:35;4.35;;;2.60;;
21430;SDS011;10876;49.038;10.608;2023-04-28T12:55:03;2.00;;;1.73;;
21430;SDS011;10876;49.038;10.608;2023-04-28T12:57:31;2.75;;;2.40;;
21430;SDS011;10876;49.038;10.608;2023-04-28T12:59:58;4.97;;;2.60;;
21430;SDS011;10876;49.038;10.608;2023-04-28T13:02:25;1.90;;;1.80;;
21430;SDS011;10876;49.038;10.608;2023-04-28T13:04:55;1.90;;;1.77;;
21430;SDS011;10876;49.038;10.608;2023-04-28T13:07:22;2.42;;;2.20;;
21430;SDS011;10876;49.038;10.608;2023-04-28T13:09:49;2.05;;;1.85;;
21430;SDS011;10876;49.038;10.608;2023-04-28T13:12:17;2.80;;;2.60;;
21430;SDS011;10876;49.038;10.608;2023-04-28T13:14:44;2.88;;;2.40;;
21430;SDS011;10876;49.038;10.608;2023-04-28T13:17:11;3.45;;;2.97;;
21430;SDS011;10876;49.038;10.608;2023-04-28T13:19:38;7.10;;;3.05;;
21430;SDS011;10876;49.038;10.608;2023-04-28T13:22:06;3.33;;;2.47;;
21430;SDS011;10876;49.038;10.608;2023-04-28T13:24:34;4.30;;;2.78;;
21430;SDS011;10876;49.038;10.608;2023-04-28T13:27:01;3.40;;;2.55;;
21430;SDS011;10876;49.038;10.608;2023-04-28T13:29:29;3.20;;;2.90;;
21430;SDS011;10876;49.038;10.608;2023-04-28T13:31:56;3.92;;;2.60;;
21430;SDS011;10876;49.038;10.608;2023-04-28T13:34:23;2.78;;;2.42;;
21430;SDS011;10876;49.038;10.608;2023-04-28T13:36:50;3.05;;;2.45;;
21430;SDS011;10876;49.038;10.608;2023-04-28T13:39:19;3.13;;;2.58;;
21430;SDS011;10876;49.038;10.608;2023-04-28T13:41:46;4.38;;;3.10;;
21430;SDS011;10876;49.038;10.608;2023-04-28T13:44:13;5.68;;;4.53;;
21430;SDS011;10876;49.038;10.608;2023-04-28T13:46:41;5.22;;;3.72;;
21430;SDS011;10876;49.038;10.608;2023-04-28T13:49:08;4.75;;;3.58;;
21430;SDS011;10876;49.038;10.608;2023-04-28T13:51:35;3.15;;;2.50;;
21430;SDS011;10876;49.038;10.608;2023-04-28T13:54:03;4.15;;;2.58;;
21430;SDS011;10876;49.038;10.608;2023-04-28T13:56:33;2.58;;;2.33;;
21430;SDS011;10876;49.038;10.608;2023-04-28T13:59:00;2.65;;;2.45;;
21430;SDS011;10876;49.038;10.608;2023-04-28T14:01:28;3.22;;;2.70;;
21430;SDS011;10876;49.038;10.608;2023-04-28T14:03:56;2.45;;;2.00;;
21430;SDS011;10876;49.038;10.608;2023-04-28T14:06:23;36.78;;;13.63;;
21430;SDS011;10876;49.038;10.608;2023-04-28T14:08:50;5.28;;;3.67;;
21430;SDS011;10876;49.038;10.608;2023-04-28T14:11:17;3.13;;;1.98;;
21430;SDS011;10876;49.038;10.608;2023-04-28T14:13:44;9.90;;;4.85;;
21430;SDS011;10876;49.038;10.608;2023-04-28T14:16:11;13.82;;;6.68;;
21430;SDS011;10876;49.038;10.608;2023-04-28T14:18:38;5.93;;;3.58;;
21430;SDS011;10876;49.038;10.608;2023-04-28T14:21:07;14.70;;;7.90;;
21430;SDS011;10876;49.038;10.608;2023-04-28T14:23:34;4.85;;;3.13;;
21430;SDS011;10876;49.038;10.608;2023-04-28T14:26:01;6.47;;;3.83;;
21430;SDS011;10876;49.038;10.608;2023-04-28T14:28:28;3.17;;;2.88;;
21430;SDS011;10876;49.038;10.608;2023-04-28T14:30:55;5.78;;;5.25;;
21430;SDS011;10876;49.038;10.608;2023-04-28T14:33:21;4.63;;;3.30;;
21430;SDS011;10876;49.038;10.608;2023-04-28T14:35:49;6.05;;;4.45;;
21430;SDS011;10876;49.038;10.608;2023-04-28T14:38:17;3.22;;;2.70;;
21430;SDS011;10876;49.038;10.608;2023-04-28T14:40:44;2.03;;;1.80;;
21430;SDS011;10876;49.038;10.608;2023-04-28T14:43:11;2.40;;;2.00;;
21430;SDS011;10876;49.038;10.608;2023-04-28T14:45:39;2.17;;;1.70;;
21430;SDS011;10876;49.038;10.608;2023-04-28T14:48:06;1.90;;;1.70;;
21430;SDS011;10876;49.038;10.608;2023-04-28T14:50:34;1.65;;;1.42;;
21430;SDS011;10876;49.038;10.608;2023-04-28T14:53:01;1.70;;;1.58;;
21430;SDS011;10876;49.038;10.608;2023-04-28T14:55:32;3.45;;;2.00;;
21430;SDS011;10876;49.038;10.608;2023-04-28T14:57:59;3.05;;;1.55;;
21430;SDS011;10876;49.038;10.608;2023-04-28T15:00:27;2.55;;;1.85;;
21430;SDS011;10876;49.038;10.608;2023-04-28T15:02:55;5.07;;;3.50;;
21430;SDS011;10876;49.038;10.608;2023-04-28T15:05:22;5.18;;;3.83;;
21430;SDS011;10876;49.038;10.608;2023-04-28T15:07:49;6.05;;;4.13;;
21430;SDS011;10876;49.038;10.608;2023-04-28T15:10:16;4.30;;;3.30;;
21430;SDS011;10876;49.038;10.608;2023-04-28T15:12:45;2.80;;;2.15;;
21430;SDS011;10876;49.038;10.608;2023-04-28T15:15:13;3.22;;;1.92;;
21430;SDS011;10876;49.038;10.608;2023-04-28T15:17:40;2.17;;;1.50;;
21430;SDS011;10876;49.038;10.608;2023-04-28T15:20:07;2.72;;;1.90;;
21430;SDS011;10876;49.038;10.608;2023-04-28T15:22:34;3.38;;;2.25;;
21430;SDS011;10876;49.038;10.608;2023-04-28T15:25:01;3.33;;;2.50;;
21430;SDS011;10876;49.038;10.608;2023-04-28T15:27:28;8.38;;;3.88;;
21430;SDS011;10876;49.038;10.608;2023-04-28T15:29:57;8.32;;;4.00;;
21430;SDS011;10876;49.038;10.608;2023-04-28T15:32:32;5.78;;;3.50;;
21430;SDS011;10876;49.038;10.608;2023-04-28T15:35:17;4.13;;;2.67;;
21430;SDS011;10876;49.038;10.608;2023-04-28T15:37:45;2.95;;;1.50;;
21430;SDS011;10876;49.038;10.608;2023-04-28T15:40:14;3.63;;;2.20;;
21430;SDS011;10876;49.038;10.608;2023-04-28T15:42:42;3.05;;;2.50;;
21430;SDS011;10876;49.038;10.608;2023-04-28T15:45:14;1.70;;;1.30;;
21430;SDS011;10876;49.038;10.608;2023-04-28T15:47:42;3.67;;;1.98;;
21430;SDS011;10876;49.038;10.608;2023-04-28T15:50:12;3.50;;;1.80;;
21430;SDS011;10876;49.038;10.608;2023-04-28T15:52:39;4.93;;;1.95;;
21430;SDS011;10876;49.038;10.608;2023-04-28T15:55:10;3.03;;;2.17;;
21430;SDS011;10876;49.038;10.608;2023-04-28T15:57:38;7.60;;;2.03;;
21430;SDS011;10876;49.038;10.608;2023-04-28T16:00:05;3.60;;;2.20;;
21430;SDS011;10876;49.038;10.608;2023-04-28T16:02:35;20.05;;;9.60;;
21430;SDS011;10876;49.038;10.608;2023-04-28T16:05:03;4.30;;;3.35;;
21430;SDS011;10876;49.038;10.608;2023-04-28T16:07:30;4.57;;;2.92;;